sensor_id;sensor_type;location;lat;lon;timestamp;P1;durP1;ratioP1;P2;durP2;ratioP2
50555;SDS011;36508;52.512;13.450;2023-05-14T00:02:00;12.83;;;10.03;;
50555;SDS011;36508;52.512;13.450;2023-05-14T00:04:27;10.87;;;10.07;;
50555;SDS011;36508;52.512;13.450;2023-05-14T00:06:52;9.83;;;9.20;;
50555;SDS011;36508;52.512;13.450;2023-05-14T00:09:20;10.07;;;9.27;;
50555;SDS011;36508;52.512;13.450;2023-05-14T00:11:46;9.50;;;8.80;;
50555;SDS011;36508;52.512;13.450;2023-05-14T00:14:12;9.37;;;8.67;;
50555;SDS011;36508;52.512;13.450;2023-05-14T00:16:38;10.47;;;9.60;;
50555;SDS011;36508;52.512;13.450;2023-05-14T00:19:03;10.17;;;9.37;;
50555;SDS011;36508;52.512;13.450;2023-05-14T00:21:29;10.57;;;9.80;;
50555;SDS011;36508;52.512;13.450;2023-05-14T00:23:55;10.30;;;9.47;;
50555;SDS011;36508;52.512;13.450;2023-05-14T00:26:21;10.73;;;9.93;;
50555;SDS011;36508;52.512;13.450;2023-05-14T00:28:47;11.03;;;10.30;;
50555;SDS011;36508;52.512;13.450;2023-05-14T00:31:13;10.90;;;9.80;;
50555;SDS011;36508;52.512;13.450;2023-05-14T00:33:39;9.27;;;8.67;;
50555;SDS011;36508;52.512;13.450;2023-05-14T00:36:04;9.73;;;8.90;;
50555;SDS011;36508;52.512;13.450;2023-05-14T00:38:30;9.90;;;8.90;;
50555;SDS011;36508;52.512;13.450;2023-05-14T00:40:56;10.17;;;9.30;;
50555;SDS011;36508;52.512;13.450;2023-05-14T00:43:22;9.80;;;8.90;;
50555;SDS011;36508;52.512;13.450;2023-05-14T00:45:52;9.10;;;8.50;;
50555;SDS011;36508;52.512;13.450;2023-05-14T00:48:19;8.73;;;8.13;;
50555;SDS011;36508;52.512;13.450;2023-05-14T00:50:45;8.63;;;8.03;;
50555;SDS011;36508;52.512;13.450;2023-05-14T00:53:14;8.30;;;7.67;;
50555;SDS011;36508;52.512;13.450;2023-05-14T00:55:41;8.47;;;7.80;;
50555;SDS011;36508;52.512;13.450;2023-05-14T00:58:10;9.47;;;8.53;;
50555;SDS011;36508;52.512;13.450;2023-05-14T01:00:37;9.20;;;8.50;;
50555;SDS011;36508;52.512;13.450;2023-05-14T01:03:04;8.43;;;7.93;;
50555;SDS011;36508;52.512;13.450;2023-05-14T01:08:39;8.50;;;7.90;;
50555;SDS011;36508;52.512;13.450;2023-05-14T01:11:15;10.03;;;9.03;;
50555;SDS011;36508;52.512;13.450;2023-05-14T01:13:55;8.97;;;8.23;;
50555;SDS011;36508;52.512;13.450;2023-05-14T01:16:22;10.13;;;8.03;;
50555;SDS011;36508;52.512;13.450;2023-05-14T01:18:50;8.60;;;7.70;;
50555;SDS011;36508;52.512;13.450;2023-05-14T01:21:35;8.20;;;7.47;;
50555;SDS011;36508;52.512;13.450;2023-05-14T01:24:06;8.80;;;8.00;;
50555;SDS011;36508;52.512;13.450;2023-05-14T01:26:33;8.30;;;7.80;;
50555;SDS011;36508;52.512;13.450;2023-05-14T01:29:00;9.67;;;8.87;;
50555;SDS011;36508;52.512;13.450;2023-05-14T01:31:33;7.63;;;6.90;;
50555;SDS011;36508;52.512;13.450;2023-05-14T01:34:03;9.47;;;8.67;;
50555;SDS011;36508;52.512;13.450;2023-05-14T01:36:30;7.27;;;6.73;;
50555;SDS011;36508;52.512;13.450;2023-05-14T01:38:57;12.60;;;9.03;;
50555;SDS011;36508;52.512;13.450;2023-05-14T01:41:25;8.63;;;7.90;;
50555;SDS011;36508;52.512;13.450;2023-05-14T01:43:51;7.27;;;6.57;;
50555;SDS011;36508;52.512;13.450;2023-05-14T01:46:20;7.60;;;7.10;;
50555;SDS011;36508;52.512;13.450;2023-05-14T01:48:48;7.70;;;7.20;;
50555;SDS011;36508;52.512;13.450;2023-05-14T01:51:13;8.10;;;7.50;;
50555;SDS011;36508;52.512;13.450;2023-05-14T01:53:39;6.60;;;6.17;;
50555;SDS011;36508;52.512;13.450;2023-05-14T01:56:05;6.57;;;6.17;;
50555;SDS011;36508;52.512;13.450;2023-05-14T01:58:31;7.90;;;7.40;;
50555;SDS011;36508;52.512;13.450;2023-05-14T02:00:56;8.07;;;6.97;;
50555;SDS011;36508;52.512;13.450;2023-05-14T02:03:33;8.43;;;7.83;;
50555;SDS011;36508;52.512;13.450;2023-05-14T02:06:22;7.73;;;7.13;;
50555;SDS011;36508;52.512;13.450;2023-05-14T02:08:47;7.13;;;6.00;;
50555;SDS011;36508;52.512;13.450;2023-05-14T02:11:13;8.70;;;8.10;;
50555;SDS011;36508;52.512;13.450;2023-05-14T02:13:39;6.83;;;6.30;;
50555;SDS011;36508;52.512;13.450;2023-05-14T02:16:04;7.50;;;7.00;;
50555;SDS011;36508;52.512;13.450;2023-05-14T02:18:30;7.97;;;7.27;;
50555;SDS011;36508;52.512;13.450;2023-05-14T02:20:56;8.17;;;7.47;;
50555;SDS011;36508;52.512;13.450;2023-05-14T02:23:21;8.10;;;7.40;;
50555;SDS011;36508;52.512;13.450;2023-05-14T02:25:47;8.93;;;8.27;;
50555;SDS011;36508;52.512;13.450;2023-05-14T02:28:13;7.27;;;6.87;;
50555;SDS011;36508;52.512;13.450;2023-05-14T02:30:38;7.93;;;7.33;;
50555;SDS011;36508;52.512;13.450;2023-05-14T02:33:04;7.50;;;7.00;;
50555;SDS011;36508;52.512;13.450;2023-05-14T02:35:29;7.70;;;7.10;;
50555;SDS011;36508;52.512;13.450;2023-05-14T02:37:55;7.40;;;6.90;;
50555;SDS011;36508;52.512;13.450;2023-05-14T02:40:21;7.30;;;6.67;;
50555;SDS011;36508;52.512;13.450;2023-05-14T02:42:46;7.50;;;6.37;;
50555;SDS011;36508;52.512;13.450;2023-05-14T02:45:12;7.43;;;6.67;;
50555;SDS011;36508;52.512;13.450;2023-05-14T02:47:37;7.20;;;6.60;;
50555;SDS011;36508;52.512;13.450;2023-05-14T02:50:03;7.57;;;6.97;;
50555;SDS011;36508;52.512;13.450;2023-05-14T02:52:30;7.10;;;6.50;;
50555;SDS011;36508;52.512;13.450;2023-05-14T02:54:55;8.03;;;7.43;;
50555;SDS011;36508;52.512;13.450;2023-05-14T02:57:21;7.67;;;6.90;;
50555;SDS011;36508;52.512;13.450;2023-05-14T02:59:47;8.17;;;7.47;;
50555;SDS011;36508;52.512;13.450;2023-05-14T03:02:12;7.27;;;6.70;;
50555;SDS011;36508;52.512;13.450;2023-05-14T03:04:38;6.60;;;6.03;;
50555;SDS011;36508;52.512;13.450;2023-05-14T03:07:03;8.23;;;6.90;;
50555;SDS011;36508;52.512;13.450;2023-05-14T03:09:29;6.13;;;5.83;;
50555;SDS011;36508;52.512;13.450;2023-05-14T03:11:55;6.70;;;6.10;;
50555;SDS011;36508;52.512;13.450;2023-05-14T03:14:20;6.87;;;6.47;;
50555;SDS011;36508;52.512;13.450;2023-05-14T03:16:46;6.83;;;6.43;;
50555;SDS011;36508;52.512;13.450;2023-05-14T03:19:12;7.40;;;6.83;;
50555;SDS011;36508;52.512;13.450;2023-05-14T03:21:37;11.80;;;6.10;;
50555;SDS011;36508;52.512;13.450;2023-05-14T03:24:03;6.40;;;6.03;;
50555;SDS011;36508;52.512;13.450;2023-05-14T03:26:29;8.07;;;5.90;;
50555;SDS011;36508;52.512;13.450;2023-05-14T03:28:54;10.03;;;8.83;;
50555;SDS011;36508;52.512;13.450;2023-05-14T03:31:20;8.10;;;7.50;;
50555;SDS011;36508;52.512;13.450;2023-05-14T03:33:45;8.33;;;7.50;;
50555;SDS011;36508;52.512;13.450;2023-05-14T03:36:11;8.97;;;8.00;;
50555;SDS011;36508;52.512;13.450;2023-05-14T03:38:37;7.90;;;7.40;;
50555;SDS011;36508;52.512;13.450;2023-05-14T03:41:02;6.83;;;6.30;;
50555;SDS011;36508;52.512;13.450;2023-05-14T03:43:28;9.67;;;7.47;;
50555;SDS011;36508;52.512;13.450;2023-05-14T03:45:53;7.97;;;7.00;;
50555;SDS011;36508;52.512;13.450;2023-05-14T03:48:19;6.70;;;6.20;;
50555;SDS011;36508;52.512;13.450;2023-05-14T03:50:44;8.00;;;7.47;;
50555;SDS011;36508;52.512;13.450;2023-05-14T03:53:10;8.17;;;7.30;;
50555;SDS011;36508;52.512;13.450;2023-05-14T03:55:36;13.03;;;8.90;;
50555;SDS011;36508;52.512;13.450;2023-05-14T03:58:01;9.77;;;8.70;;
50555;SDS011;36508;52.512;13.450;2023-05-14T04:00:29;8.87;;;7.97;;
50555;SDS011;36508;52.512;13.450;2023-05-14T04:02:55;7.87;;;7.10;;
50555;SDS011;36508;52.512;13.450;2023-05-14T04:05:21;7.40;;;6.77;;
50555;SDS011;36508;52.512;13.450;2023-05-14T04:07:46;9.63;;;7.50;;
50555;SDS011;36508;52.512;13.450;2023-05-14T04:10:12;8.60;;;7.80;;
50555;SDS011;36508;52.512;13.450;2023-05-14T04:12:38;8.10;;;7.57;;
50555;SDS011;36508;52.512;13.450;2023-05-14T04:15:04;7.07;;;6.67;;
50555;SDS011;36508;52.512;13.450;2023-05-14T04:17:30;15.90;;;9.00;;
50555;SDS011;36508;52.512;13.450;2023-05-14T04:19:56;7.60;;;7.10;;
50555;SDS011;36508;52.512;13.450;2023-05-14T04:22:21;8.73;;;7.03;;
50555;SDS011;36508;52.512;13.450;2023-05-14T04:24:47;8.27;;;7.27;;
50555;SDS011;36508;52.512;13.450;2023-05-14T04:27:19;7.57;;;6.93;;
50555;SDS011;36508;52.512;13.450;2023-05-14T04:29:48;7.77;;;7.17;;
50555;SDS011;36508;52.512;13.450;2023-05-14T04:32:14;7.60;;;7.10;;
50555;SDS011;36508;52.512;13.450;2023-05-14T04:34:40;9.37;;;8.63;;
50555;SDS011;36508;52.512;13.450;2023-05-14T04:37:05;9.07;;;8.47;;
50555;SDS011;36508;52.512;13.450;2023-05-14T04:39:31;8.27;;;7.67;;
50555;SDS011;36508;52.512;13.450;2023-05-14T04:41:56;9.67;;;7.63;;
50555;SDS011;36508;52.512;13.450;2023-05-14T04:44:22;9.17;;;7.97;;
50555;SDS011;36508;52.512;13.450;2023-05-14T04:46:48;7.43;;;6.90;;
50555;SDS011;36508;52.512;13.450;2023-05-14T04:49:13;8.73;;;8.03;;
50555;SDS011;36508;52.512;13.450;2023-05-14T04:51:39;8.10;;;7.40;;
50555;SDS011;36508;52.512;13.450;2023-05-14T04:54:05;8.40;;;7.70;;
50555;SDS011;36508;52.512;13.450;2023-05-14T04:56:30;7.87;;;7.17;;
50555;SDS011;36508;52.512;13.450;2023-05-14T04:58:56;7.13;;;6.50;;
50555;SDS011;36508;52.512;13.450;2023-05-14T05:01:21;8.03;;;7.43;;
50555;SDS011;36508;52.512;13.450;2023-05-14T05:03:47;7.63;;;6.30;;
50555;SDS011;36508;52.512;13.450;2023-05-14T05:06:13;8.03;;;6.73;;
50555;SDS011;36508;52.512;13.450;2023-05-14T05:08:38;7.60;;;6.93;;
50555;SDS011;36508;52.512;13.450;2023-05-14T05:11:05;9.90;;;6.83;;
50555;SDS011;36508;52.512;13.450;2023-05-14T05:13:31;9.73;;;7.23;;
50555;SDS011;36508;52.512;13.450;2023-05-14T05:15:56;8.63;;;7.60;;
50555;SDS011;36508;52.512;13.450;2023-05-14T05:18:22;12.23;;;8.03;;
50555;SDS011;36508;52.512;13.450;2023-05-14T05:20:48;7.40;;;6.83;;
50555;SDS011;36508;52.512;13.450;2023-05-14T05:23:13;8.33;;;7.73;;
50555;SDS011;36508;52.512;13.450;2023-05-14T05:25:39;8.83;;;6.83;;
50555;SDS011;36508;52.512;13.450;2023-05-14T05:28:05;7.73;;;7.23;;
50555;SDS011;36508;52.512;13.450;2023-05-14T05:30:30;7.43;;;7.00;;
50555;SDS011;36508;52.512;13.450;2023-05-14T05:32:56;14.77;;;7.67;;
50555;SDS011;36508;52.512;13.450;2023-05-14T05:35:22;9.60;;;8.47;;
50555;SDS011;36508;52.512;13.450;2023-05-14T05:37:47;11.33;;;6.97;;
50555;SDS011;36508;52.512;13.450;2023-05-14T05:40:13;8.57;;;7.87;;
50555;SDS011;36508;52.512;13.450;2023-05-14T05:42:39;8.87;;;6.80;;
50555;SDS011;36508;52.512;13.450;2023-05-14T05:45:05;8.97;;;7.43;;
50555;SDS011;36508;52.512;13.450;2023-05-14T05:47:34;7.53;;;6.93;;
50555;SDS011;36508;52.512;13.450;2023-05-14T05:50:03;8.00;;;7.30;;
50555;SDS011;36508;52.512;13.450;2023-05-14T05:52:29;8.80;;;8.00;;
50555;SDS011;36508;52.512;13.450;2023-05-14T05:54:54;7.53;;;7.03;;
50555;SDS011;36508;52.512;13.450;2023-05-14T05:57:20;7.33;;;6.90;;
50555;SDS011;36508;52.512;13.450;2023-05-14T05:59:47;7.30;;;6.80;;
50555;SDS011;36508;52.512;13.450;2023-05-14T06:02:13;9.30;;;8.40;;
50555;SDS011;36508;52.512;13.450;2023-05-14T06:04:38;9.13;;;7.10;;
50555;SDS011;36508;52.512;13.450;2023-05-14T06:07:04;7.60;;;7.00;;
50555;SDS011;36508;52.512;13.450;2023-05-14T06:09:30;8.30;;;7.60;;
50555;SDS011;36508;52.512;13.450;2023-05-14T06:11:55;8.13;;;7.50;;
50555;SDS011;36508;52.512;13.450;2023-05-14T06:14:21;7.00;;;6.50;;
50555;SDS011;36508;52.512;13.450;2023-05-14T06:16:47;8.43;;;7.73;;
50555;SDS011;36508;52.512;13.450;2023-05-14T06:19:12;8.30;;;7.40;;
50555;SDS011;36508;52.512;13.450;2023-05-14T06:21:38;6.90;;;6.30;;
50555;SDS011;36508;52.512;13.450;2023-05-14T06:24:04;7.00;;;6.50;;
50555;SDS011;36508;52.512;13.450;2023-05-14T06:26:30;8.50;;;7.70;;
50555;SDS011;36508;52.512;13.450;2023-05-14T06:28:56;9.43;;;8.70;;
50555;SDS011;36508;52.512;13.450;2023-05-14T06:31:22;7.90;;;7.40;;
50555;SDS011;36508;52.512;13.450;2023-05-14T06:33:48;7.90;;;7.23;;
50555;SDS011;36508;52.512;13.450;2023-05-14T06:36:14;7.27;;;6.67;;
50555;SDS011;36508;52.512;13.450;2023-05-14T06:38:39;7.93;;;7.43;;
50555;SDS011;36508;52.512;13.450;2023-05-14T06:41:05;7.50;;;6.90;;
50555;SDS011;36508;52.512;13.450;2023-05-14T06:43:30;7.20;;;6.70;;
50555;SDS011;36508;52.512;13.450;2023-05-14T06:45:56;7.53;;;6.93;;
50555;SDS011;36508;52.512;13.450;2023-05-14T06:48:22;6.80;;;6.37;;
50555;SDS011;36508;52.512;13.450;2023-05-14T06:50:48;7.83;;;6.70;;
50555;SDS011;36508;52.512;13.450;2023-05-14T06:53:13;6.90;;;6.40;;
50555;SDS011;36508;52.512;13.450;2023-05-14T06:55:39;8.70;;;8.10;;
50555;SDS011;36508;52.512;13.450;2023-05-14T06:58:05;10.50;;;9.43;;
50555;SDS011;36508;52.512;13.450;2023-05-14T07:00:31;8.10;;;7.40;;
50555;SDS011;36508;52.512;13.450;2023-05-14T07:02:57;10.00;;;6.53;;
50555;SDS011;36508;52.512;13.450;2023-05-14T07:05:23;7.77;;;7.17;;
50555;SDS011;36508;52.512;13.450;2023-05-14T07:07:48;6.93;;;6.00;;
50555;SDS011;36508;52.512;13.450;2023-05-14T07:10:14;8.43;;;6.10;;
50555;SDS011;36508;52.512;13.450;2023-05-14T07:12:40;6.43;;;5.90;;
50555;SDS011;36508;52.512;13.450;2023-05-14T07:15:05;7.83;;;7.00;;
50555;SDS011;36508;52.512;13.450;2023-05-14T07:17:31;5.60;;;5.10;;
50555;SDS011;36508;52.512;13.450;2023-05-14T07:20:06;6.77;;;6.20;;
50555;SDS011;36508;52.512;13.450;2023-05-14T07:22:32;7.00;;;6.40;;
50555;SDS011;36508;52.512;13.450;2023-05-14T07:24:58;7.90;;;7.10;;
50555;SDS011;36508;52.512;13.450;2023-05-14T07:27:24;7.57;;;6.87;;
50555;SDS011;36508;52.512;13.450;2023-05-14T07:29:49;8.93;;;8.23;;
50555;SDS011;36508;52.512;13.450;2023-05-14T07:32:15;8.07;;;7.33;;
50555;SDS011;36508;52.512;13.450;2023-05-14T07:34:56;7.80;;;7.27;;
50555;SDS011;36508;52.512;13.450;2023-05-14T07:37:24;6.67;;;6.03;;
50555;SDS011;36508;52.512;13.450;2023-05-14T07:39:50;6.53;;;6.03;;
50555;SDS011;36508;52.512;13.450;2023-05-14T07:42:16;6.40;;;5.87;;
50555;SDS011;36508;52.512;13.450;2023-05-14T07:44:42;7.80;;;6.10;;
50555;SDS011;36508;52.512;13.450;2023-05-14T07:47:08;9.17;;;7.00;;
50555;SDS011;36508;52.512;13.450;2023-05-14T07:49:34;7.27;;;5.43;;
50555;SDS011;36508;52.512;13.450;2023-05-14T07:52:00;6.60;;;6.10;;
50555;SDS011;36508;52.512;13.450;2023-05-14T07:54:26;8.13;;;5.30;;
50555;SDS011;36508;52.512;13.450;2023-05-14T07:56:52;6.47;;;5.90;;
50555;SDS011;36508;52.512;13.450;2023-05-14T07:59:17;25.27;;;6.70;;
50555;SDS011;36508;52.512;13.450;2023-05-14T08:01:43;6.47;;;5.90;;
50555;SDS011;36508;52.512;13.450;2023-05-14T08:04:09;6.30;;;5.90;;
50555;SDS011;36508;52.512;13.450;2023-05-14T08:06:39;5.67;;;5.33;;
50555;SDS011;36508;52.512;13.450;2023-05-14T08:09:06;4.47;;;4.27;;
50555;SDS011;36508;52.512;13.450;2023-05-14T08:11:32;5.17;;;4.77;;
50555;SDS011;36508;52.512;13.450;2023-05-14T08:13:58;5.40;;;4.90;;
50555;SDS011;36508;52.512;13.450;2023-05-14T08:16:24;7.70;;;4.70;;
50555;SDS011;36508;52.512;13.450;2023-05-14T08:18:50;5.90;;;5.47;;
50555;SDS011;36508;52.512;13.450;2023-05-14T08:21:16;5.10;;;4.70;;
50555;SDS011;36508;52.512;13.450;2023-05-14T08:23:42;5.53;;;5.10;;
50555;SDS011;36508;52.512;13.450;2023-05-14T08:26:07;6.20;;;5.67;;
50555;SDS011;36508;52.512;13.450;2023-05-14T08:28:33;7.23;;;5.17;;
50555;SDS011;36508;52.512;13.450;2023-05-14T08:30:59;5.57;;;5.27;;
50555;SDS011;36508;52.512;13.450;2023-05-14T08:33:24;7.20;;;6.57;;
50555;SDS011;36508;52.512;13.450;2023-05-14T08:35:53;8.50;;;7.90;;
50555;SDS011;36508;52.512;13.450;2023-05-14T08:38:18;4.90;;;4.60;;
50555;SDS011;36508;52.512;13.450;2023-05-14T08:40:48;5.63;;;5.17;;
50555;SDS011;36508;52.512;13.450;2023-05-14T08:43:26;8.00;;;6.50;;
50555;SDS011;36508;52.512;13.450;2023-05-14T08:46:04;5.83;;;5.30;;
50555;SDS011;36508;52.512;13.450;2023-05-14T08:48:31;7.43;;;7.03;;
50555;SDS011;36508;52.512;13.450;2023-05-14T08:50:58;6.47;;;5.43;;
50555;SDS011;36508;52.512;13.450;2023-05-14T08:53:24;7.73;;;7.10;;
50555;SDS011;36508;52.512;13.450;2023-05-14T08:55:52;5.13;;;4.73;;
50555;SDS011;36508;52.512;13.450;2023-05-14T08:58:18;5.27;;;4.87;;
50555;SDS011;36508;52.512;13.450;2023-05-14T09:00:44;5.47;;;4.60;;
50555;SDS011;36508;52.512;13.450;2023-05-14T09:03:09;6.20;;;4.90;;
50555;SDS011;36508;52.512;13.450;2023-05-14T09:05:36;6.00;;;5.43;;
50555;SDS011;36508;52.512;13.450;2023-05-14T09:08:02;5.23;;;4.93;;
50555;SDS011;36508;52.512;13.450;2023-05-14T09:10:27;5.37;;;5.07;;
50555;SDS011;36508;52.512;13.450;2023-05-14T09:12:53;5.67;;;5.17;;
50555;SDS011;36508;52.512;13.450;2023-05-14T09:15:19;5.47;;;5.03;;
50555;SDS011;36508;52.512;13.450;2023-05-14T09:17:44;5.03;;;4.73;;
50555;SDS011;36508;52.512;13.450;2023-05-14T09:20:12;5.73;;;5.20;;
50555;SDS011;36508;52.512;13.450;2023-05-14T09:22:39;6.10;;;4.93;;
50555;SDS011;36508;52.512;13.450;2023-05-14T09:25:08;5.90;;;5.50;;
50555;SDS011;36508;52.512;13.450;2023-05-14T09:27:35;4.97;;;4.67;;
50555;SDS011;36508;52.512;13.450;2023-05-14T09:30:08;7.47;;;5.70;;
50555;SDS011;36508;52.512;13.450;2023-05-14T09:32:36;5.87;;;5.40;;
50555;SDS011;36508;52.512;13.450;2023-05-14T09:35:18;8.00;;;7.30;;
50555;SDS011;36508;52.512;13.450;2023-05-14T09:37:45;5.30;;;5.00;;
50555;SDS011;36508;52.512;13.450;2023-05-14T09:40:17;5.30;;;5.00;;
50555;SDS011;36508;52.512;13.450;2023-05-14T09:42:44;5.40;;;5.00;;
50555;SDS011;36508;52.512;13.450;2023-05-14T09:45:10;4.83;;;4.47;;
50555;SDS011;36508;52.512;13.450;2023-05-14T09:47:36;6.80;;;4.03;;
50555;SDS011;36508;52.512;13.450;2023-05-14T09:50:03;6.47;;;4.57;;
50555;SDS011;36508;52.512;13.450;2023-05-14T09:52:29;5.60;;;5.20;;
50555;SDS011;36508;52.512;13.450;2023-05-14T09:54:55;5.00;;;4.50;;
50555;SDS011;36508;52.512;13.450;2023-05-14T09:57:21;5.07;;;4.47;;
50555;SDS011;36508;52.512;13.450;2023-05-14T09:59:47;5.47;;;4.97;;
50555;SDS011;36508;52.512;13.450;2023-05-14T10:02:25;4.60;;;4.20;;
50555;SDS011;36508;52.512;13.450;2023-05-14T10:04:56;4.87;;;4.67;;
50555;SDS011;36508;52.512;13.450;2023-05-14T10:07:28;5.47;;;5.13;;
50555;SDS011;36508;52.512;13.450;2023-05-14T10:10:00;4.60;;;4.30;;
50555;SDS011;36508;52.512;13.450;2023-05-14T10:12:28;4.90;;;4.10;;
50555;SDS011;36508;52.512;13.450;2023-05-14T10:14:59;8.27;;;5.20;;
50555;SDS011;36508;52.512;13.450;2023-05-14T10:17:28;6.23;;;5.73;;
50555;SDS011;36508;52.512;13.450;2023-05-14T10:19:56;8.30;;;5.33;;
50555;SDS011;36508;52.512;13.450;2023-05-14T10:22:25;5.30;;;5.00;;
50555;SDS011;36508;52.512;13.450;2023-05-14T10:24:55;7.97;;;7.27;;
50555;SDS011;36508;52.512;13.450;2023-05-14T10:27:21;4.30;;;3.97;;
50555;SDS011;36508;52.512;13.450;2023-05-14T10:29:51;5.93;;;5.33;;
50555;SDS011;36508;52.512;13.450;2023-05-14T10:32:21;4.33;;;4.13;;
50555;SDS011;36508;52.512;13.450;2023-05-14T10:34:49;6.23;;;5.50;;
50555;SDS011;36508;52.512;13.450;2023-05-14T10:37:17;5.13;;;4.00;;
50555;SDS011;36508;52.512;13.450;2023-05-14T10:39:57;7.33;;;4.67;;
50555;SDS011;36508;52.512;13.450;2023-05-14T10:42:27;5.70;;;5.27;;
50555;SDS011;36508;52.512;13.450;2023-05-14T10:45:00;5.40;;;4.90;;
50555;SDS011;36508;52.512;13.450;2023-05-14T10:47:34;5.80;;;5.30;;
50555;SDS011;36508;52.512;13.450;2023-05-14T10:50:01;5.23;;;4.80;;
50555;SDS011;36508;52.512;13.450;2023-05-14T10:52:29;5.40;;;4.90;;
50555;SDS011;36508;52.512;13.450;2023-05-14T10:54:56;5.83;;;5.43;;
50555;SDS011;36508;52.512;13.450;2023-05-14T10:57:26;5.87;;;5.40;;
50555;SDS011;36508;52.512;13.450;2023-05-14T10:59:55;5.27;;;4.93;;
50555;SDS011;36508;52.512;13.450;2023-05-14T11:04:53;6.47;;;5.87;;
50555;SDS011;36508;52.512;13.450;2023-05-14T11:07:22;4.43;;;4.23;;
50555;SDS011;36508;52.512;13.450;2023-05-14T11:09:57;5.67;;;5.17;;
50555;SDS011;36508;52.512;13.450;2023-05-14T11:12:28;5.03;;;4.63;;
50555;SDS011;36508;52.512;13.450;2023-05-14T11:14:58;8.60;;;6.80;;
50555;SDS011;36508;52.512;13.450;2023-05-14T11:17:28;6.30;;;5.80;;
50555;SDS011;36508;52.512;13.450;2023-05-14T11:19:55;7.50;;;6.90;;
50555;SDS011;36508;52.512;13.450;2023-05-14T11:22:21;6.17;;;5.60;;
50555;SDS011;36508;52.512;13.450;2023-05-14T11:24:47;6.00;;;5.40;;
50555;SDS011;36508;52.512;13.450;2023-05-14T11:27:13;7.23;;;5.23;;
50555;SDS011;36508;52.512;13.450;2023-05-14T11:29:44;5.90;;;5.40;;
50555;SDS011;36508;52.512;13.450;2023-05-14T11:32:11;5.80;;;5.37;;
50555;SDS011;36508;52.512;13.450;2023-05-14T11:34:38;7.17;;;6.47;;
50555;SDS011;36508;52.512;13.450;2023-05-14T11:37:06;7.63;;;6.90;;
50555;SDS011;36508;52.512;13.450;2023-05-14T11:39:33;5.77;;;5.30;;
50555;SDS011;36508;52.512;13.450;2023-05-14T11:42:18;5.30;;;4.93;;
50555;SDS011;36508;52.512;13.450;2023-05-14T11:44:54;6.40;;;5.70;;
50555;SDS011;36508;52.512;13.450;2023-05-14T11:47:19;11.47;;;8.73;;
50555;SDS011;36508;52.512;13.450;2023-05-14T11:49:46;7.33;;;6.80;;
50555;SDS011;36508;52.512;13.450;2023-05-14T11:52:13;6.90;;;5.40;;
50555;SDS011;36508;52.512;13.450;2023-05-14T11:54:40;5.77;;;5.40;;
50555;SDS011;36508;52.512;13.450;2023-05-14T11:57:07;7.10;;;6.30;;
50555;SDS011;36508;52.512;13.450;2023-05-14T11:59:40;7.17;;;6.67;;
50555;SDS011;36508;52.512;13.450;2023-05-14T12:02:10;6.93;;;6.33;;
50555;SDS011;36508;52.512;13.450;2023-05-14T12:04:37;7.13;;;6.10;;
50555;SDS011;36508;52.512;13.450;2023-05-14T12:07:07;9.13;;;6.13;;
50555;SDS011;36508;52.512;13.450;2023-05-14T12:09:35;6.00;;;5.50;;
50555;SDS011;36508;52.512;13.450;2023-05-14T12:12:08;7.67;;;5.60;;
50555;SDS011;36508;52.512;13.450;2023-05-14T12:14:39;7.07;;;6.37;;
50555;SDS011;36508;52.512;13.450;2023-05-14T12:17:17;5.80;;;5.40;;
50555;SDS011;36508;52.512;13.450;2023-05-14T12:19:44;7.60;;;6.80;;
50555;SDS011;36508;52.512;13.450;2023-05-14T12:22:11;7.13;;;6.50;;
50555;SDS011;36508;52.512;13.450;2023-05-14T12:24:38;6.40;;;5.70;;
50555;SDS011;36508;52.512;13.450;2023-05-14T12:27:06;5.63;;;5.10;;
50555;SDS011;36508;52.512;13.450;2023-05-14T12:29:34;9.43;;;8.60;;
50555;SDS011;36508;52.512;13.450;2023-05-14T12:32:06;7.70;;;6.20;;
50555;SDS011;36508;52.512;13.450;2023-05-14T12:34:33;7.90;;;6.20;;
50555;SDS011;36508;52.512;13.450;2023-05-14T12:37:01;7.10;;;6.60;;
50555;SDS011;36508;52.512;13.450;2023-05-14T12:39:33;6.07;;;5.77;;
50555;SDS011;36508;52.512;13.450;2023-05-14T12:42:00;8.73;;;6.97;;
50555;SDS011;36508;52.512;13.450;2023-05-14T12:44:26;7.40;;;5.70;;
50555;SDS011;36508;52.512;13.450;2023-05-14T12:46:57;5.83;;;5.33;;
50555;SDS011;36508;52.512;13.450;2023-05-14T12:49:23;6.73;;;6.30;;
50555;SDS011;36508;52.512;13.450;2023-05-14T12:51:53;6.13;;;5.73;;
50555;SDS011;36508;52.512;13.450;2023-05-14T12:54:18;5.53;;;5.23;;
50555;SDS011;36508;52.512;13.450;2023-05-14T12:56:44;5.50;;;4.87;;
50555;SDS011;36508;52.512;13.450;2023-05-14T12:59:09;4.67;;;4.37;;
50555;SDS011;36508;52.512;13.450;2023-05-14T13:01:35;9.93;;;5.43;;
50555;SDS011;36508;52.512;13.450;2023-05-14T13:04:02;13.37;;;10.20;;
50555;SDS011;36508;52.512;13.450;2023-05-14T13:06:28;5.10;;;4.73;;
50555;SDS011;36508;52.512;13.450;2023-05-14T13:08:54;5.77;;;5.37;;
50555;SDS011;36508;52.512;13.450;2023-05-14T13:11:20;4.80;;;4.50;;
50555;SDS011;36508;52.512;13.450;2023-05-14T13:13:47;4.97;;;4.53;;
50555;SDS011;36508;52.512;13.450;2023-05-14T13:16:13;7.13;;;6.40;;
50555;SDS011;36508;52.512;13.450;2023-05-14T13:18:40;6.23;;;5.30;;
50555;SDS011;36508;52.512;13.450;2023-05-14T13:21:06;6.93;;;4.67;;
50555;SDS011;36508;52.512;13.450;2023-05-14T13:23:32;5.40;;;5.03;;
50555;SDS011;36508;52.512;13.450;2023-05-14T13:25:57;6.33;;;5.73;;
50555;SDS011;36508;52.512;13.450;2023-05-14T13:28:23;4.07;;;3.87;;
50555;SDS011;36508;52.512;13.450;2023-05-14T13:31:04;5.37;;;4.97;;
50555;SDS011;36508;52.512;13.450;2023-05-14T13:33:40;10.90;;;9.93;;
50555;SDS011;36508;52.512;13.450;2023-05-14T13:36:07;5.57;;;5.07;;
50555;SDS011;36508;52.512;13.450;2023-05-14T13:38:34;5.87;;;5.37;;
50555;SDS011;36508;52.512;13.450;2023-05-14T13:41:00;6.43;;;4.47;;
50555;SDS011;36508;52.512;13.450;2023-05-14T13:43:33;6.33;;;5.73;;
50555;SDS011;36508;52.512;13.450;2023-05-14T13:45:59;6.27;;;5.97;;
50555;SDS011;36508;52.512;13.450;2023-05-14T13:48:25;5.73;;;5.20;;
50555;SDS011;36508;52.512;13.450;2023-05-14T13:50:51;10.20;;;6.00;;
50555;SDS011;36508;52.512;13.450;2023-05-14T13:53:18;5.93;;;5.13;;
50555;SDS011;36508;52.512;13.450;2023-05-14T13:55:44;5.87;;;4.77;;
50555;SDS011;36508;52.512;13.450;2023-05-14T13:58:10;9.60;;;7.60;;
50555;SDS011;36508;52.512;13.450;2023-05-14T14:00:36;6.67;;;6.17;;
50555;SDS011;36508;52.512;13.450;2023-05-14T14:03:01;6.03;;;5.63;;
50555;SDS011;36508;52.512;13.450;2023-05-14T14:05:27;7.07;;;6.47;;
50555;SDS011;36508;52.512;13.450;2023-05-14T14:07:53;5.90;;;4.97;;
50555;SDS011;36508;52.512;13.450;2023-05-14T14:10:20;5.87;;;5.43;;
50555;SDS011;36508;52.512;13.450;2023-05-14T14:12:46;5.77;;;5.27;;
50555;SDS011;36508;52.512;13.450;2023-05-14T14:15:12;5.67;;;5.13;;
50555;SDS011;36508;52.512;13.450;2023-05-14T14:17:37;5.60;;;5.23;;
50555;SDS011;36508;52.512;13.450;2023-05-14T14:20:05;6.37;;;5.83;;
50555;SDS011;36508;52.512;13.450;2023-05-14T14:22:32;6.93;;;6.17;;
50555;SDS011;36508;52.512;13.450;2023-05-14T14:24:57;6.50;;;5.80;;
50555;SDS011;36508;52.512;13.450;2023-05-14T14:27:23;5.43;;;5.13;;
50555;SDS011;36508;52.512;13.450;2023-05-14T14:29:49;5.20;;;4.83;;
50555;SDS011;36508;52.512;13.450;2023-05-14T14:32:15;6.90;;;5.00;;
50555;SDS011;36508;52.512;13.450;2023-05-14T14:34:41;5.67;;;5.17;;
50555;SDS011;36508;52.512;13.450;2023-05-14T14:37:06;5.27;;;4.67;;
50555;SDS011;36508;52.512;13.450;2023-05-14T14:39:32;5.20;;;4.83;;